EWG26D EDDL-LDRI
Flight info
| Callsign | EWG26D |
|---|---|
| Flight time | 1h 19m |
| Altitude | 39000 |
| Route | DODEN7Z/05R DODEN Y853 BOMBI DCT DETEV DCT DINKU M867 XERUM DCT BAVAX DCT RADIZ DCT PESUT DCT GIRDA |
| Aircraft | A320/M-SDE3FGHIRWY/LB1 |
Departure
| Time | 2026-04-30 19:42 |
|---|---|
| Airport | Düsseldorf Airport (EDDL) |
Arrival
| Time | 2026-04-30 21:01 |
|---|---|
| Airport | Rijeka Airport (LDRI) |
| Time | Latitude | Longitude | Altitude | Speed | Heading |
|---|---|---|---|---|---|
| 2026-04-30 19:06 | 51.28106 | 6.76722 | 137 ft | 0 kts | 276° |
| 2026-04-30 19:31 | 51.28102 | 6.76778 | 137 ft | 4 kts | 284° |
| 2026-04-30 19:31 | 51.28095 | 6.76807 | 137 ft | 3 kts | 11° |
| 2026-04-30 19:31 | 51.28092 | 6.76806 | 137 ft | 0 kts | 21° |
| 2026-04-30 19:35 | 51.28099 | 6.76811 | 137 ft | 7 kts | 21° |
| 2026-04-30 19:36 | 51.28168 | 6.76835 | 137 ft | 10 kts | 8° |
| 2026-04-30 19:36 | 51.28235 | 6.76849 | 137 ft | 9 kts | 5° |
| 2026-04-30 19:36 | 51.28251 | 6.76851 | 137 ft | 0 kts | 2° |
| 2026-04-30 19:37 | 51.28270 | 6.76848 | 137 ft | 8 kts | 346° |
| 2026-04-30 19:37 | 51.28313 | 6.76798 | 137 ft | 7 kts | 320° |
| 2026-04-30 19:37 | 51.28351 | 6.76749 | 137 ft | 8 kts | 322° |
| 2026-04-30 19:38 | 51.28413 | 6.76665 | 137 ft | 14 kts | 297° |
| 2026-04-30 19:38 | 51.28374 | 6.76536 | 137 ft | 16 kts | 232° |
| 2026-04-30 19:38 | 51.28286 | 6.76350 | 137 ft | 23 kts | 232° |
| 2026-04-30 19:38 | 51.28200 | 6.76170 | 137 ft | 19 kts | 233° |
| 2026-04-30 19:39 | 51.28123 | 6.76010 | 137 ft | 17 kts | 233° |
| 2026-04-30 19:39 | 51.28054 | 6.75863 | 137 ft | 16 kts | 232° |
| 2026-04-30 19:39 | 51.27976 | 6.75702 | 137 ft | 18 kts | 232° |
| 2026-04-30 19:39 | 51.27948 | 6.75573 | 136 ft | 12 kts | 300° |
| 2026-04-30 19:40 | 51.27985 | 6.75530 | 135 ft | 0 kts | 338° |
| 2026-04-30 19:41 | 51.27993 | 6.75525 | 135 ft | 2 kts | 338° |
| 2026-04-30 19:41 | 51.28040 | 6.75496 | 133 ft | 15 kts | 339° |
| 2026-04-30 19:41 | 51.28109 | 6.75513 | 132 ft | 10 kts | 51° |
| 2026-04-30 19:42 | 51.28169 | 6.75640 | 133 ft | 28 kts | 52° |
| 2026-04-30 19:42 | 51.28455 | 6.76235 | 132 ft | 103 kts | 52° |
| 2026-04-30 19:42 | 51.29019 | 6.77389 | 214 ft | 151 kts | 54° |
| 2026-04-30 19:42 | 51.29635 | 6.78715 | 1002 ft | 148 kts | 57° |
| 2026-04-30 19:43 | 51.30260 | 6.80052 | 1726 ft | 160 kts | 59° |
| 2026-04-30 19:43 | 51.30969 | 6.81584 | 2260 ft | 180 kts | 59° |
| 2026-04-30 19:43 | 51.31759 | 6.83279 | 2841 ft | 204 kts | 59° |
| 2026-04-30 19:44 | 51.33659 | 6.87363 | 3940 ft | 251 kts | 58° |
| 2026-04-30 19:44 | 51.34694 | 6.89665 | 4862 ft | 258 kts | 62° |
| 2026-04-30 19:44 | 51.35261 | 6.92340 | 5823 ft | 256 kts | 90° |
| 2026-04-30 19:44 | 51.35086 | 6.95160 | 6849 ft | 255 kts | 100° |
| 2026-04-30 19:45 | 51.34803 | 6.97977 | 7834 ft | 258 kts | 101° |
| 2026-04-30 19:45 | 51.34506 | 7.00828 | 8774 ft | 262 kts | 101° |
| 2026-04-30 19:45 | 51.34204 | 7.03722 | 9713 ft | 266 kts | 100° |
| 2026-04-30 19:45 | 51.33899 | 7.06668 | 10593 ft | 273 kts | 100° |
| 2026-04-30 19:46 | 51.33581 | 7.09752 | 10957 ft | 296 kts | 99° |
| 2026-04-30 19:46 | 51.33239 | 7.13099 | 11504 ft | 310 kts | 100° |
| 2026-04-30 19:46 | 51.32623 | 7.16429 | 12294 ft | 316 kts | 113° |
| 2026-04-30 19:46 | 51.31521 | 7.19496 | 13116 ft | 322 kts | 126° |
| 2026-04-30 19:47 | 51.29990 | 7.22147 | 13943 ft | 328 kts | 133° |
| 2026-04-30 19:47 | 51.28889 | 7.23880 | 14451 ft | 331 kts | 133° |
| 2026-04-30 19:47 | 51.26701 | 7.27322 | 15399 ft | 336 kts | 133° |
| 2026-04-30 19:47 | 51.25030 | 7.29953 | 16109 ft | 339 kts | 133° |
| 2026-04-30 19:48 | 51.23339 | 7.32619 | 16821 ft | 343 kts | 133° |
| 2026-04-30 19:48 | 51.22209 | 7.34398 | 17273 ft | 346 kts | 133° |
| 2026-04-30 19:48 | 51.20029 | 7.37828 | 18162 ft | 351 kts | 132° |
| 2026-04-30 19:48 | 51.18284 | 7.40574 | 18836 ft | 354 kts | 132° |
| 2026-04-30 19:49 | 51.16520 | 7.43345 | 19439 ft | 358 kts | 133° |
| 2026-04-30 19:49 | 51.12922 | 7.48935 | 20644 ft | 365 kts | 133° |
| 2026-04-30 19:49 | 51.11076 | 7.51757 | 21243 ft | 369 kts | 133° |
| 2026-04-30 19:50 | 51.09215 | 7.54591 | 21838 ft | 372 kts | 134° |
| 2026-04-30 19:50 | 51.07334 | 7.57452 | 22428 ft | 376 kts | 134° |
| 2026-04-30 19:50 | 51.05433 | 7.60337 | 23020 ft | 380 kts | 134° |
| 2026-04-30 19:50 | 51.03510 | 7.63251 | 23614 ft | 383 kts | 134° |
| 2026-04-30 19:51 | 51.01570 | 7.66190 | 24151 ft | 387 kts | 134° |
| 2026-04-30 19:51 | 50.99614 | 7.69153 | 24624 ft | 390 kts | 134° |
| 2026-04-30 19:51 | 50.97642 | 7.72140 | 25086 ft | 394 kts | 135° |
| 2026-04-30 19:51 | 50.95473 | 7.74833 | 25533 ft | 400 kts | 144° |
| 2026-04-30 19:52 | 50.93136 | 7.77150 | 25977 ft | 403 kts | 146° |
| 2026-04-30 19:52 | 50.90742 | 7.79500 | 26412 ft | 406 kts | 146° |
| 2026-04-30 19:52 | 50.88329 | 7.81868 | 26843 ft | 410 kts | 146° |
| 2026-04-30 19:52 | 50.85897 | 7.84258 | 27261 ft | 413 kts | 146° |
| 2026-04-30 19:53 | 50.83447 | 7.86661 | 27684 ft | 416 kts | 146° |
| 2026-04-30 19:53 | 50.80982 | 7.89073 | 28086 ft | 419 kts | 146° |
| 2026-04-30 19:53 | 50.78493 | 7.91505 | 28485 ft | 422 kts | 146° |
| 2026-04-30 19:53 | 50.75991 | 7.93952 | 28882 ft | 425 kts | 146° |
| 2026-04-30 19:54 | 50.73473 | 7.96416 | 29273 ft | 427 kts | 146° |
| 2026-04-30 19:54 | 50.70935 | 7.98898 | 29650 ft | 430 kts | 146° |
| 2026-04-30 19:54 | 50.68388 | 8.01390 | 30022 ft | 433 kts | 146° |
| 2026-04-30 19:54 | 50.65815 | 8.03898 | 30388 ft | 436 kts | 146° |
| 2026-04-30 19:55 | 50.63227 | 8.06414 | 30693 ft | 438 kts | 146° |
| 2026-04-30 19:55 | 50.60634 | 8.08974 | 30995 ft | 440 kts | 142° |
| 2026-04-30 19:55 | 50.58230 | 8.11938 | 31284 ft | 439 kts | 137° |
| 2026-04-30 19:55 | 50.55881 | 8.15035 | 31574 ft | 441 kts | 137° |
| 2026-04-30 19:56 | 50.53520 | 8.18140 | 31860 ft | 443 kts | 137° |
| 2026-04-30 19:56 | 50.51148 | 8.21250 | 32139 ft | 445 kts | 137° |
| 2026-04-30 19:56 | 50.48768 | 8.24364 | 32514 ft | 444 kts | 137° |
| 2026-04-30 19:56 | 50.46393 | 8.27463 | 32906 ft | 444 kts | 137° |
| 2026-04-30 19:57 | 50.44017 | 8.30557 | 33302 ft | 443 kts | 137° |
| 2026-04-30 19:57 | 50.41650 | 8.33639 | 33675 ft | 442 kts | 137° |
| 2026-04-30 19:57 | 50.39285 | 8.36722 | 34063 ft | 442 kts | 137° |
| 2026-04-30 19:57 | 50.36922 | 8.39798 | 34444 ft | 441 kts | 137° |
| 2026-04-30 19:58 | 50.35357 | 8.41831 | 34658 ft | 441 kts | 137° |
| 2026-04-30 19:58 | 50.32996 | 8.44891 | 34985 ft | 441 kts | 137° |
| 2026-04-30 19:58 | 50.30636 | 8.47943 | 35301 ft | 440 kts | 137° |
| 2026-04-30 19:58 | 50.28405 | 8.50823 | 35592 ft | 440 kts | 137° |
| 2026-04-30 19:59 | 50.26047 | 8.53865 | 35893 ft | 439 kts | 137° |
| 2026-04-30 19:59 | 50.23693 | 8.56899 | 36183 ft | 439 kts | 136° |
| 2026-04-30 19:59 | 50.18983 | 8.62963 | 36763 ft | 438 kts | 136° |
| 2026-04-30 20:00 | 50.16631 | 8.65986 | 37033 ft | 438 kts | 136° |
| 2026-04-30 20:00 | 50.14280 | 8.69001 | 37297 ft | 438 kts | 136° |
| 2026-04-30 20:00 | 50.11928 | 8.72011 | 37553 ft | 437 kts | 136° |
| 2026-04-30 20:00 | 50.09578 | 8.75019 | 37806 ft | 437 kts | 136° |
| 2026-04-30 20:01 | 50.05418 | 8.81742 | 38294 ft | 428 kts | 120° |
| 2026-04-30 20:01 | 50.03908 | 8.85696 | 38521 ft | 423 kts | 111° |
| 2026-04-30 20:01 | 50.02644 | 8.89813 | 38757 ft | 422 kts | 111° |
| 2026-04-30 20:02 | 50.00956 | 8.95257 | 39054 ft | 422 kts | 111° |
| 2026-04-30 20:02 | 50.00165 | 8.97782 | 39154 ft | 422 kts | 111° |
| 2026-04-30 20:03 | 49.97587 | 9.05992 | 39372 ft | 424 kts | 111° |
| 2026-04-30 20:03 | 49.96296 | 9.10107 | 39366 ft | 424 kts | 111° |
| 2026-04-30 20:03 | 49.93714 | 9.18347 | 39363 ft | 424 kts | 111° |
| 2026-04-30 20:04 | 49.91125 | 9.26576 | 39373 ft | 424 kts | 111° |
| 2026-04-30 20:05 | 49.87237 | 9.38846 | 39373 ft | 424 kts | 111° |
| 2026-04-30 20:05 | 49.83295 | 9.51138 | 39378 ft | 427 kts | 115° |
| 2026-04-30 20:06 | 49.79524 | 9.58352 | 39383 ft | 438 kts | 132° |
| 2026-04-30 20:06 | 49.75067 | 9.64784 | 39390 ft | 438 kts | 132° |
| 2026-04-30 20:07 | 49.70615 | 9.71224 | 39381 ft | 439 kts | 131° |
| 2026-04-30 20:08 | 49.63930 | 9.80895 | 39380 ft | 439 kts | 131° |
| 2026-04-30 20:08 | 49.59462 | 9.87332 | 39374 ft | 440 kts | 131° |
| 2026-04-30 20:09 | 49.54982 | 9.93762 | 39376 ft | 440 kts | 131° |
| 2026-04-30 20:09 | 49.48282 | 10.03340 | 39377 ft | 441 kts | 131° |
| 2026-04-30 20:10 | 49.41527 | 10.12943 | 39376 ft | 441 kts | 131° |
| 2026-04-30 20:11 | 49.34772 | 10.22541 | 39407 ft | 442 kts | 131° |
| 2026-04-30 20:11 | 49.30253 | 10.28938 | 39407 ft | 442 kts | 131° |
| 2026-04-30 20:12 | 49.23370 | 10.38373 | 39414 ft | 448 kts | 139° |
| 2026-04-30 20:13 | 49.18028 | 10.43422 | 39419 ft | 452 kts | 143° |
| 2026-04-30 20:13 | 49.12607 | 10.48345 | 39422 ft | 453 kts | 143° |
| 2026-04-30 20:14 | 49.07178 | 10.53276 | 39426 ft | 454 kts | 143° |
| 2026-04-30 20:14 | 49.01743 | 10.58200 | 39422 ft | 455 kts | 143° |
| 2026-04-30 20:15 | 48.96302 | 10.63120 | 39421 ft | 455 kts | 143° |
| 2026-04-30 20:15 | 48.90850 | 10.68024 | 39422 ft | 455 kts | 144° |
| 2026-04-30 20:16 | 48.85397 | 10.72934 | 39409 ft | 456 kts | 143° |
| 2026-04-30 20:16 | 48.80252 | 10.78392 | 39404 ft | 446 kts | 130° |
| 2026-04-30 20:17 | 48.76070 | 10.85231 | 39390 ft | 442 kts | 126° |
| 2026-04-30 20:17 | 48.71977 | 10.92115 | 39386 ft | 443 kts | 126° |
| 2026-04-30 20:18 | 48.67844 | 10.99042 | 39384 ft | 444 kts | 126° |
| 2026-04-30 20:18 | 48.63690 | 11.05966 | 39385 ft | 445 kts | 126° |
| 2026-04-30 20:19 | 48.59521 | 11.12904 | 39385 ft | 446 kts | 126° |
| 2026-04-30 20:19 | 48.55347 | 11.19838 | 39388 ft | 447 kts | 126° |
| 2026-04-30 20:20 | 48.51161 | 11.26769 | 39386 ft | 447 kts | 126° |
| 2026-04-30 20:20 | 48.47175 | 11.33339 | 39383 ft | 448 kts | 126° |
| 2026-04-30 20:21 | 48.42969 | 11.40259 | 39386 ft | 448 kts | 126° |
| 2026-04-30 20:21 | 48.38750 | 11.47184 | 39385 ft | 449 kts | 126° |
| 2026-04-30 20:22 | 48.34520 | 11.54109 | 39386 ft | 450 kts | 126° |
| 2026-04-30 20:22 | 48.30276 | 11.61042 | 39391 ft | 451 kts | 126° |
| 2026-04-30 20:23 | 48.26018 | 11.67953 | 39395 ft | 452 kts | 128° |
| 2026-04-30 20:23 | 48.21511 | 11.74499 | 39397 ft | 456 kts | 131° |
| 2026-04-30 20:24 | 48.16750 | 11.80826 | 39402 ft | 457 kts | 133° |
| 2026-04-30 20:24 | 48.11994 | 11.87151 | 39399 ft | 457 kts | 132° |
| 2026-04-30 20:25 | 48.04955 | 11.96784 | 39398 ft | 457 kts | 131° |
| 2026-04-30 20:26 | 47.97906 | 12.06412 | 39398 ft | 458 kts | 132° |
| 2026-04-30 20:26 | 47.90829 | 12.15999 | 39397 ft | 459 kts | 132° |
| 2026-04-30 20:27 | 47.81367 | 12.28770 | 39403 ft | 459 kts | 132° |
| 2026-04-30 20:28 | 47.71890 | 12.41491 | 39400 ft | 459 kts | 132° |
| 2026-04-30 20:30 | 47.59578 | 12.56545 | 39395 ft | 465 kts | 144° |
| 2026-04-30 20:31 | 47.42886 | 12.71030 | 39378 ft | 464 kts | 145° |
| 2026-04-30 20:32 | 47.28968 | 12.83054 | 39358 ft | 463 kts | 145° |
| 2026-04-30 20:33 | 47.20630 | 12.90225 | 39356 ft | 463 kts | 146° |
| 2026-04-30 20:34 | 47.12287 | 12.97370 | 39353 ft | 463 kts | 146° |
| 2026-04-30 20:34 | 47.06719 | 13.02132 | 39211 ft | 464 kts | 146° |
| 2026-04-30 20:35 | 47.03937 | 13.04505 | 38933 ft | 463 kts | 146° |
| 2026-04-30 20:35 | 47.01144 | 13.06883 | 38136 ft | 465 kts | 145° |
| 2026-04-30 20:35 | 46.95889 | 13.12115 | 37519 ft | 441 kts | 130° |
| 2026-04-30 20:36 | 46.93814 | 13.15451 | 37128 ft | 446 kts | 125° |
| 2026-04-30 20:36 | 46.91789 | 13.18904 | 36582 ft | 449 kts | 124° |
| 2026-04-30 20:36 | 46.87726 | 13.25827 | 35306 ft | 455 kts | 131° |
| 2026-04-30 20:37 | 46.85098 | 13.28498 | 34597 ft | 469 kts | 146° |
| 2026-04-30 20:37 | 46.82166 | 13.30642 | 33839 ft | 472 kts | 147° |
| 2026-04-30 20:37 | 46.79216 | 13.32751 | 33019 ft | 472 kts | 147° |
| 2026-04-30 20:37 | 46.76264 | 13.34835 | 32236 ft | 471 kts | 147° |
| 2026-04-30 20:38 | 46.73352 | 13.36876 | 31580 ft | 468 kts | 147° |
| 2026-04-30 20:38 | 46.70428 | 13.38911 | 30890 ft | 453 kts | 147° |
| 2026-04-30 20:38 | 46.67656 | 13.40842 | 30034 ft | 442 kts | 147° |
| 2026-04-30 20:39 | 46.62336 | 13.44557 | 29076 ft | 406 kts | 147° |
| 2026-04-30 20:39 | 46.59840 | 13.46312 | 28619 ft | 391 kts | 147° |
| 2026-04-30 20:39 | 46.57436 | 13.48009 | 28168 ft | 377 kts | 147° |
| 2026-04-30 20:40 | 46.52749 | 13.51340 | 27303 ft | 374 kts | 147° |
| 2026-04-30 20:40 | 46.50419 | 13.52992 | 26866 ft | 372 kts | 147° |
| 2026-04-30 20:40 | 46.48097 | 13.54626 | 26435 ft | 370 kts | 147° |
| 2026-04-30 20:41 | 46.43480 | 13.57866 | 25539 ft | 368 kts | 147° |
| 2026-04-30 20:41 | 46.41176 | 13.59479 | 25092 ft | 367 kts | 148° |
| 2026-04-30 20:41 | 46.38874 | 13.61089 | 24615 ft | 368 kts | 148° |
| 2026-04-30 20:41 | 46.36571 | 13.62701 | 24129 ft | 368 kts | 148° |
| 2026-04-30 20:42 | 46.34264 | 13.64312 | 23612 ft | 368 kts | 149° |
| 2026-04-30 20:42 | 46.31963 | 13.65914 | 23099 ft | 365 kts | 149° |
| 2026-04-30 20:42 | 46.27419 | 13.69064 | 22155 ft | 361 kts | 149° |
| 2026-04-30 20:43 | 46.25158 | 13.70637 | 21726 ft | 360 kts | 149° |
| 2026-04-30 20:43 | 46.22891 | 13.72166 | 21291 ft | 359 kts | 152° |
| 2026-04-30 20:43 | 46.20588 | 13.73551 | 20847 ft | 358 kts | 154° |
| 2026-04-30 20:44 | 46.15959 | 13.76061 | 19980 ft | 357 kts | 156° |
| 2026-04-30 20:44 | 46.13628 | 13.77295 | 19549 ft | 356 kts | 156° |
| 2026-04-30 20:44 | 46.08986 | 13.79798 | 18687 ft | 356 kts | 155° |
| 2026-04-30 20:45 | 46.04338 | 13.82361 | 17460 ft | 363 kts | 155° |
| 2026-04-30 20:45 | 46.01991 | 13.83663 | 17043 ft | 360 kts | 156° |
| 2026-04-30 20:45 | 45.99657 | 13.84953 | 16612 ft | 359 kts | 156° |
| 2026-04-30 20:46 | 45.93511 | 13.88336 | 15491 ft | 351 kts | 156° |
| 2026-04-30 20:46 | 45.91240 | 13.89582 | 15084 ft | 348 kts | 156° |
| 2026-04-30 20:47 | 45.86733 | 13.92057 | 14260 ft | 346 kts | 156° |
| 2026-04-30 20:47 | 45.84493 | 13.93287 | 13821 ft | 344 kts | 156° |
| 2026-04-30 20:48 | 45.80052 | 13.95716 | 12989 ft | 339 kts | 156° |
| 2026-04-30 20:48 | 45.77855 | 13.96919 | 12573 ft | 337 kts | 156° |
| 2026-04-30 20:48 | 45.75671 | 13.98116 | 12152 ft | 335 kts | 156° |
| 2026-04-30 20:48 | 45.73502 | 13.99303 | 11741 ft | 333 kts | 156° |
| 2026-04-30 20:49 | 45.71342 | 14.00480 | 11443 ft | 327 kts | 157° |
| 2026-04-30 20:49 | 45.69255 | 14.01616 | 11224 ft | 314 kts | 157° |
| 2026-04-30 20:49 | 45.67235 | 14.02713 | 10610 ft | 309 kts | 156° |
| 2026-04-30 20:50 | 45.63330 | 14.04834 | 9646 ft | 290 kts | 156° |
| 2026-04-30 20:50 | 45.61474 | 14.05840 | 9262 ft | 283 kts | 156° |
| 2026-04-30 20:50 | 45.59649 | 14.06828 | 9029 ft | 275 kts | 155° |
| 2026-04-30 20:50 | 45.57892 | 14.07777 | 8867 ft | 265 kts | 155° |
| 2026-04-30 20:51 | 45.56197 | 14.08693 | 8708 ft | 256 kts | 155° |
| 2026-04-30 20:51 | 45.52985 | 14.10430 | 8449 ft | 239 kts | 154° |
| 2026-04-30 20:51 | 45.51456 | 14.11256 | 8322 ft | 231 kts | 154° |
| 2026-04-30 20:52 | 45.49971 | 14.12063 | 8130 ft | 227 kts | 154° |
| 2026-04-30 20:52 | 45.48580 | 14.13046 | 8023 ft | 220 kts | 137° |
| 2026-04-30 20:52 | 45.46826 | 14.16321 | 7865 ft | 202 kts | 103° |
| 2026-04-30 20:53 | 45.46377 | 14.18175 | 7475 ft | 201 kts | 102° |
| 2026-04-30 20:53 | 45.45924 | 14.20033 | 7168 ft | 196 kts | 102° |
| 2026-04-30 20:53 | 45.45480 | 14.21841 | 6872 ft | 191 kts | 102° |
| 2026-04-30 20:54 | 45.44612 | 14.25374 | 6240 ft | 186 kts | 102° |
| 2026-04-30 20:54 | 45.44187 | 14.27097 | 5909 ft | 183 kts | 102° |
| 2026-04-30 20:54 | 45.43767 | 14.28809 | 5633 ft | 182 kts | 102° |
| 2026-04-30 20:55 | 45.42938 | 14.32183 | 5127 ft | 179 kts | 102° |
| 2026-04-30 20:55 | 45.42501 | 14.33843 | 4852 ft | 182 kts | 111° |
| 2026-04-30 20:55 | 45.41736 | 14.35322 | 4664 ft | 190 kts | 129° |
| 2026-04-30 20:56 | 45.39835 | 14.37822 | 4202 ft | 182 kts | 129° |
| 2026-04-30 20:56 | 45.38863 | 14.39033 | 3921 ft | 186 kts | 134° |
| 2026-04-30 20:56 | 45.36834 | 14.41235 | 3459 ft | 182 kts | 138° |
| 2026-04-30 20:57 | 45.35817 | 14.42305 | 3429 ft | 184 kts | 137° |
| 2026-04-30 20:57 | 45.34787 | 14.43385 | 3279 ft | 183 kts | 139° |
| 2026-04-30 20:57 | 45.33762 | 14.44456 | 3063 ft | 182 kts | 137° |
| 2026-04-30 20:58 | 45.31755 | 14.46555 | 2557 ft | 176 kts | 141° |
| 2026-04-30 20:58 | 45.30799 | 14.47555 | 2329 ft | 167 kts | 140° |
| 2026-04-30 20:58 | 45.29941 | 14.48450 | 2105 ft | 164 kts | 141° |
| 2026-04-30 20:58 | 45.29271 | 14.49148 | 1926 ft | 151 kts | 142° |
| 2026-04-30 20:59 | 45.27651 | 14.50838 | 1526 ft | 141 kts | 142° |
| 2026-04-30 20:59 | 45.26859 | 14.51668 | 1364 ft | 143 kts | 142° |
| 2026-04-30 21:00 | 45.25253 | 14.53339 | 973 ft | 141 kts | 140° |
| 2026-04-30 21:00 | 45.23734 | 14.54924 | 581 ft | 132 kts | 138° |
| 2026-04-30 21:01 | 45.22240 | 14.56485 | 274 ft | 127 kts | 140° |
| 2026-04-30 21:01 | 45.21654 | 14.57096 | 263 ft | 67 kts | 144° |
| 2026-04-30 21:01 | 45.21192 | 14.57572 | 257 ft | 38 kts | 144° |
| 2026-04-30 21:02 | 45.20979 | 14.57791 | 256 ft | 37 kts | 144° |
| 2026-04-30 21:02 | 45.20827 | 14.57948 | 256 ft | 12 kts | 144° |
| 2026-04-30 21:02 | 45.20767 | 14.57986 | 256 ft | 8 kts | 95° |
| 2026-04-30 21:02 | 45.20800 | 14.57986 | 256 ft | 7 kts | 322° |
| 2026-04-30 21:03 | 45.20863 | 14.57914 | 256 ft | 16 kts | 323° |
| 2026-04-30 21:03 | 45.20972 | 14.57800 | 256 ft | 24 kts | 323° |
| 2026-04-30 21:03 | 45.21118 | 14.57647 | 257 ft | 27 kts | 323° |
| 2026-04-30 21:03 | 45.21276 | 14.57484 | 258 ft | 29 kts | 324° |
| 2026-04-30 21:04 | 45.21436 | 14.57318 | 261 ft | 27 kts | 324° |
| 2026-04-30 21:04 | 45.21560 | 14.57202 | 263 ft | 17 kts | 341° |
| 2026-04-30 21:04 | 45.21791 | 14.57199 | 264 ft | 12 kts | 339° |
| 2026-04-30 21:05 | 45.21857 | 14.57132 | 265 ft | 11 kts | 324° |
| 2026-04-30 21:05 | 45.21906 | 14.57087 | 265 ft | 6 kts | 2° |
| 2026-04-30 21:05 | 45.21920 | 14.57123 | 265 ft | 4 kts | 93° |
| 2026-04-30 21:05 | 45.21918 | 14.57136 | 265 ft | 0 kts | 101° |
| 2026-04-30 21:06 | 45.21917 | 14.57142 | 265 ft | 0 kts | 103° |